Time;durP1;ratioP1;P1;durP2;ratioP2;P2;SDS_P1;SDS_P2;PMS_P1;PMS_P2;Temp;Humidity;BMP_temperature;BMP_pressure;BME280_temperature;BME280_humidity;BME280_pressure;Samples;Min_cycle;Max_cycle;Signal;HPM_P1;HPM_P2
2021/08/19 00:01:07;;;;;;;;;6.33;5.33;;;;;;;;5073309;28;51100;-54
2021/08/19 00:03:33;;;;;;;;;3.00;3.00;;;;;;;;5072986;28;51929;-53
2021/08/19 00:05:58;;;;;;;;;2.67;2.67;;;;;;;;5072929;28;51175;-53
2021/08/19 00:08:23;;;;;;;;;3.00;3.00;;;;;;;;5072346;28;51081;-52
2021/08/19 00:10:48;;;;;;;;;4.00;4.00;;;;;;;;5073039;28;51321;-53
2021/08/19 00:13:14;;;;;;;;;3.33;3.33;;;;;;;;5054309;28;51729;-54
2021/08/19 00:15:39;;;;;;;;;2.67;2.67;;;;;;;;5054500;28;50960;-54
2021/08/19 00:18:04;;;;;;;;;3.00;2.67;;;;;;;;5073006;28;50862;-54
2021/08/19 00:20:31;;;;;;;;;4.33;4.00;;;;;;;;5072712;28;51079;-51
2021/08/19 00:22:57;;;;;;;;;3.33;3.00;;;;;;;;5072213;28;51159;-54
2021/08/19 00:25:24;;;;;;;;;1.33;1.33;;;;;;;;5072492;28;51021;-53
2021/08/19 00:27:49;;;;;;;;;3.00;3.00;;;;;;;;5054532;28;50990;-53
2021/08/19 00:30:14;;;;;;;;;3.00;3.00;;;;;;;;5072491;28;51134;-54
2021/08/19 00:32:40;;;;;;;;;5.00;5.00;;;;;;;;5072077;28;51032;-53
2021/08/19 00:35:05;;;;;;;;;2.67;2.67;;;;;;;;5072249;28;51043;-53
2021/08/19 00:37:32;;;;;;;;;4.67;4.00;;;;;;;;5072215;28;50962;-53
2021/08/19 00:39:58;;;;;;;;;3.00;3.00;;;;;;;;5072574;28;51219;-51
2021/08/19 00:42:23;;;;;;;;;2.33;2.33;;;;;;;;5072204;28;51821;-52
2021/08/19 00:44:48;;;;;;;;;2.67;2.67;;;;;;;;5072476;28;51105;-52
2021/08/19 00:47:13;;;;;;;;;2.00;1.33;;;;;;;;5072526;28;50890;-52
2021/08/19 00:49:43;;;;;;;;;3.00;3.00;;;;;;;;5072609;28;51099;-50
2021/08/19 00:52:10;;;;;;;;;4.00;4.00;;;;;;;;5059706;27;52060;-53
2021/08/19 00:54:36;;;;;;;;;2.67;2.67;;;;;;;;5068744;28;50957;-53
2021/08/19 00:57:02;;;;;;;;;2.00;2.00;;;;;;;;5054111;28;51022;-54
2021/08/19 00:59:28;;;;;;;;;3.00;3.00;;;;;;;;5072401;28;51271;-53
2021/08/19 01:02:00;;;;;;;;;4.00;4.00;;;;;;;;5072185;28;50998;-53
2021/08/19 01:04:26;;;;;;;;;3.00;3.00;;;;;;;;5072195;28;51149;-50
2021/08/19 01:06:51;;;;;;;;;3.67;3.00;;;;;;;;5062287;28;51168;-53
2021/08/19 01:09:17;;;;;;;;;4.00;3.00;;;;;;;;5072458;28;51208;-54
2021/08/19 01:11:43;;;;;;;;;3.00;2.00;;;;;;;;5072185;28;52114;-52
2021/08/19 01:14:09;;;;;;;;;1.67;1.67;;;;;;;;5072039;28;51230;-51
2021/08/19 01:16:34;;;;;;;;;4.00;3.00;;;;;;;;5072133;28;51081;-51
2021/08/19 01:18:59;;;;;;;;;4.67;4.00;;;;;;;;5072331;28;51049;-53
2021/08/19 01:21:25;;;;;;;;;3.00;3.00;;;;;;;;5057122;28;52961;-53
2021/08/19 01:23:50;;;;;;;;;2.00;1.67;;;;;;;;5075266;28;51071;-54
2021/08/19 01:26:17;;;;;;;;;4.00;3.00;;;;;;;;5075623;28;51062;-52
2021/08/19 01:28:42;;;;;;;;;4.00;4.00;;;;;;;;5075543;28;51151;-52
2021/08/19 01:31:12;;;;;;;;;2.33;2.33;;;;;;;;5075209;28;52305;-54
2021/08/19 01:33:40;;;;;;;;;3.67;3.67;;;;;;;;5075233;28;51252;-54
2021/08/19 01:36:05;;;;;;;;;3.67;3.67;;;;;;;;5057352;28;50923;-53
2021/08/19 01:38:31;;;;;;;;;1.00;0.33;;;;;;;;5075000;28;51470;-53
2021/08/19 01:40:57;;;;;;;;;3.00;3.00;;;;;;;;5075086;28;52219;-54
2021/08/19 01:43:24;;;;;;;;;3.00;2.00;;;;;;;;5075161;28;51139;-54
2021/08/19 01:45:49;;;;;;;;;3.00;3.00;;;;;;;;5075549;28;51116;-53
2021/08/19 01:48:15;;;;;;;;;3.00;2.67;;;;;;;;5075277;28;51488;-54
2021/08/19 01:50:40;;;;;;;;;3.67;3.67;;;;;;;;5074944;28;51713;-54
2021/08/19 01:53:05;;;;;;;;;4.00;3.00;;;;;;;;5074361;28;50927;-53
2021/08/19 01:55:31;;;;;;;;;6.00;6.00;;;;;;;;5074872;28;50983;-53
2021/08/19 01:57:56;;;;;;;;;4.00;4.00;;;;;;;;5074821;28;51203;-52
2021/08/19 02:00:21;;;;;;;;;5.33;4.67;;;;;;;;5074750;28;52055;-53
2021/08/19 02:02:46;;;;;;;;;5.00;5.00;;;;;;;;5056513;28;50969;-53
2021/08/19 02:05:11;;;;;;;;;4.00;4.00;;;;;;;;5074873;28;50974;-52
2021/08/19 02:07:38;;;;;;;;;3.67;3.00;;;;;;;;5074798;28;51092;-52
2021/08/19 02:10:03;;;;;;;;;3.33;3.33;;;;;;;;5074663;28;51209;-52
2021/08/19 02:12:28;;;;;;;;;2.00;2.00;;;;;;;;5074536;28;51056;-54
2021/08/19 02:14:53;;;;;;;;;3.00;3.00;;;;;;;;5074749;28;51164;-51
2021/08/19 02:17:18;;;;;;;;;2.33;2.33;;;;;;;;5074782;28;51238;-53
2021/08/19 02:19:44;;;;;;;;;3.00;3.00;;;;;;;;5074523;28;52043;-54
2021/08/19 02:22:09;;;;;;;;;3.33;3.33;;;;;;;;5074322;28;51092;-53
2021/08/19 02:24:34;;;;;;;;;3.33;3.33;;;;;;;;5074707;28;51310;-53
2021/08/19 02:26:59;;;;;;;;;3.67;3.67;;;;;;;;5074644;28;50939;-54
2021/08/19 02:29:24;;;;;;;;;2.33;2.33;;;;;;;;5056224;28;53420;-53
2021/08/19 02:31:50;;;;;;;;;2.00;2.00;;;;;;;;5073977;28;50953;-54
2021/08/19 02:34:15;;;;;;;;;3.67;2.67;;;;;;;;5074725;28;51053;-54
2021/08/19 02:36:40;;;;;;;;;2.33;2.33;;;;;;;;5074156;28;51340;-54
2021/08/19 02:39:05;;;;;;;;;2.67;2.67;;;;;;;;5074265;28;51756;-53
2021/08/19 02:41:31;;;;;;;;;2.00;2.00;;;;;;;;5074200;28;51074;-54
2021/08/19 02:43:56;;;;;;;;;2.67;2.67;;;;;;;;5056157;28;51036;-53
2021/08/19 02:46:21;;;;;;;;;2.67;2.33;;;;;;;;5074311;28;51350;-54
2021/08/19 02:48:46;;;;;;;;;3.00;2.67;;;;;;;;5055957;28;51815;-53
2021/08/19 02:51:11;;;;;;;;;2.33;2.33;;;;;;;;5074023;28;51156;-53
2021/08/19 02:53:37;;;;;;;;;1.67;1.67;;;;;;;;5067859;27;51075;-54
2021/08/19 02:56:03;;;;;;;;;2.33;2.33;;;;;;;;5074007;28;50964;-54
2021/08/19 02:58:28;;;;;;;;;3.00;3.00;;;;;;;;5073574;28;52114;-54
2021/08/19 03:00:54;;;;;;;;;3.33;3.33;;;;;;;;5073874;28;51149;-53
2021/08/19 03:03:19;;;;;;;;;3.67;2.67;;;;;;;;5074138;28;51147;-53
2021/08/19 03:05:44;;;;;;;;;4.00;2.67;;;;;;;;5074017;28;51256;-52
2021/08/19 03:08:09;;;;;;;;;1.33;0.33;;;;;;;;5073563;28;51065;-53
2021/08/19 03:10:34;;;;;;;;;3.67;3.67;;;;;;;;5073920;28;51152;-54
2021/08/19 03:13:00;;;;;;;;;4.00;4.00;;;;;;;;5073996;28;50957;-53
2021/08/19 03:15:25;;;;;;;;;2.00;2.00;;;;;;;;5073874;28;51157;-53
2021/08/19 03:17:50;;;;;;;;;2.67;2.67;;;;;;;;5073820;28;52108;-53
2021/08/19 03:20:15;;;;;;;;;1.67;1.67;;;;;;;;5073507;28;51117;-54
2021/08/19 03:22:41;;;;;;;;;1.67;1.67;;;;;;;;5073418;28;51132;-52
2021/08/19 03:25:08;;;;;;;;;1.67;1.67;;;;;;;;5073711;28;50958;-52
2021/08/19 03:27:34;;;;;;;;;4.00;4.00;;;;;;;;5073476;28;52233;-52
2021/08/19 03:29:59;;;;;;;;;2.67;2.67;;;;;;;;5073313;28;50882;-54
2021/08/19 03:32:24;;;;;;;;;3.67;3.67;;;;;;;;5073841;28;51108;-50
2021/08/19 03:34:49;;;;;;;;;5.00;3.67;;;;;;;;5073532;28;51358;-53
2021/08/19 03:37:15;;;;;;;;;3.00;3.00;;;;;;;;5072949;28;50981;-54
2021/08/19 03:39:40;;;;;;;;;3.33;3.33;;;;;;;;5073297;28;51137;-53
2021/08/19 03:42:05;;;;;;;;;3.00;3.00;;;;;;;;5073285;28;50927;-51
2021/08/19 03:44:31;;;;;;;;;2.67;2.67;;;;;;;;5072333;28;50893;-52
2021/08/19 03:46:56;;;;;;;;;3.00;3.00;;;;;;;;5073170;28;52107;-52
2021/08/19 03:49:21;;;;;;;;;4.67;3.33;;;;;;;;5072868;28;51013;-51
2021/08/19 03:51:46;;;;;;;;;5.00;5.00;;;;;;;;5073030;28;51133;-52
2021/08/19 03:54:12;;;;;;;;;4.67;4.67;;;;;;;;5054707;28;51130;-52
2021/08/19 03:56:39;;;;;;;;;4.33;4.33;;;;;;;;5054627;28;52389;-50
2021/08/19 03:59:05;;;;;;;;;6.00;5.00;;;;;;;;5072852;28;50934;-52
2021/08/19 04:01:30;;;;;;;;;3.00;3.00;;;;;;;;5073344;28;51076;-50
2021/08/19 04:03:56;;;;;;;;;4.00;4.00;;;;;;;;5054929;28;51291;-52
2021/08/19 04:06:21;;;;;;;;;2.33;2.33;;;;;;;;5072602;28;52167;-50
2021/08/19 04:08:46;;;;;;;;;4.00;4.00;;;;;;;;5072513;28;50933;-49
2021/08/19 04:11:11;;;;;;;;;2.67;2.67;;;;;;;;5054851;28;51115;-53
2021/08/19 04:13:39;;;;;;;;;4.33;4.33;;;;;;;;5072699;28;51056;-51
2021/08/19 04:16:05;;;;;;;;;3.33;3.33;;;;;;;;5072814;28;52037;-49
2021/08/19 04:18:30;;;;;;;;;5.00;4.67;;;;;;;;5072496;28;50833;-52
2021/08/19 04:20:55;;;;;;;;;3.00;3.00;;;;;;;;5072963;28;50854;-49
2021/08/19 04:23:20;;;;;;;;;4.33;4.33;;;;;;;;5072635;28;51093;-50
2021/08/19 04:25:46;;;;;;;;;5.00;4.33;;;;;;;;5072716;28;52850;-52
2021/08/19 04:28:11;;;;;;;;;4.33;4.33;;;;;;;;5072764;28;50961;-51
2021/08/19 04:30:36;;;;;;;;;4.67;4.67;;;;;;;;5054458;28;51247;-50
2021/08/19 04:33:01;;;;;;;;;3.33;3.33;;;;;;;;5072730;28;51113;-51
2021/08/19 04:35:30;;;;;;;;;4.33;4.33;;;;;;;;5072407;28;51918;-49
2021/08/19 04:37:55;;;;;;;;;4.67;4.67;;;;;;;;5072237;28;51075;-52
2021/08/19 04:40:20;;;;;;;;;4.67;4.67;;;;;;;;5072738;28;51186;-51
2021/08/19 04:42:45;;;;;;;;;4.33;4.33;;;;;;;;5072590;28;51469;-52
2021/08/19 04:45:11;;;;;;;;;6.33;5.67;;;;;;;;5072438;28;51818;-54
2021/08/19 04:47:36;;;;;;;;;5.33;4.67;;;;;;;;5072299;28;50989;-52
2021/08/19 04:50:01;;;;;;;;;5.33;4.33;;;;;;;;5072733;28;51035;-53
2021/08/19 04:52:26;;;;;;;;;5.33;5.33;;;;;;;;5072001;28;51326;-54
2021/08/19 04:54:51;;;;;;;;;4.00;4.00;;;;;;;;5062837;28;51200;-51
2021/08/19 04:57:17;;;;;;;;;3.33;3.00;;;;;;;;5075780;28;51111;-49
2021/08/19 04:59:42;;;;;;;;;5.00;4.33;;;;;;;;5057723;28;51016;-52
2021/08/19 05:02:07;;;;;;;;;5.00;4.67;;;;;;;;5075947;28;51405;-51
2021/08/19 05:04:32;;;;;;;;;8.33;5.67;;;;;;;;5075464;28;51061;-53
2021/08/19 05:06:57;;;;;;;;;7.00;6.00;;;;;;;;5075300;28;51126;-52
2021/08/19 05:09:23;;;;;;;;;4.67;4.67;;;;;;;;5057378;28;50993;-54
2021/08/19 05:11:48;;;;;;;;;5.67;5.00;;;;;;;;5075749;28;50890;-52
2021/08/19 05:14:13;;;;;;;;;6.33;5.33;;;;;;;;5075049;28;51020;-54
2021/08/19 05:16:38;;;;;;;;;5.00;4.67;;;;;;;;5075718;28;50928;-51
2021/08/19 05:19:04;;;;;;;;;5.33;5.33;;;;;;;;5075512;28;50967;-53
2021/08/19 05:21:29;;;;;;;;;6.00;6.00;;;;;;;;5074959;28;50915;-54
2021/08/19 05:23:54;;;;;;;;;5.67;5.67;;;;;;;;5075057;28;52039;-54
2021/08/19 05:26:19;;;;;;;;;6.00;6.00;;;;;;;;5075409;28;50942;-53
2021/08/19 05:28:45;;;;;;;;;5.00;5.00;;;;;;;;5075236;28;50883;-53
2021/08/19 05:31:12;;;;;;;;;6.00;5.67;;;;;;;;5075243;28;51343;-52
2021/08/19 05:33:38;;;;;;;;;5.33;5.33;;;;;;;;5074785;28;51022;-53
2021/08/19 05:36:07;;;;;;;;;5.67;5.67;;;;;;;;5074902;28;50946;-50
2021/08/19 05:38:32;;;;;;;;;6.33;5.33;;;;;;;;5074770;28;51136;-53
2021/08/19 05:40:57;;;;;;;;;5.67;5.33;;;;;;;;5075040;28;51395;-52
2021/08/19 05:43:23;;;;;;;;;5.67;5.67;;;;;;;;5074615;28;51274;-53
2021/08/19 05:45:48;;;;;;;;;6.00;6.00;;;;;;;;5075035;28;51006;-50
2021/08/19 05:48:13;;;;;;;;;5.33;5.33;;;;;;;;5074958;28;50833;-53
2021/08/19 05:50:38;;;;;;;;;6.00;6.00;;;;;;;;5075134;28;50855;-51
2021/08/19 05:53:05;;;;;;;;;6.33;6.33;;;;;;;;5074150;28;52105;-51
2021/08/19 05:55:30;;;;;;;;;6.00;6.00;;;;;;;;5074680;28;50916;-51
2021/08/19 05:57:55;;;;;;;;;7.00;7.00;;;;;;;;5056252;28;51128;-53
2021/08/19 06:00:21;;;;;;;;;4.33;3.67;;;;;;;;5075079;28;50883;-52
2021/08/19 06:02:50;;;;;;;;;5.33;5.33;;;;;;;;5074294;28;50898;-53
2021/08/19 06:05:15;;;;;;;;;6.00;6.00;;;;;;;;5074355;28;51038;-54
2021/08/19 06:07:40;;;;;;;;;5.33;5.33;;;;;;;;5073311;28;52328;-52
2021/08/19 06:10:06;;;;;;;;;5.33;5.33;;;;;;;;5074909;28;51307;-54
2021/08/19 06:12:31;;;;;;;;;6.33;5.67;;;;;;;;5055932;28;51141;-54
2021/08/19 06:14:56;;;;;;;;;5.33;5.33;;;;;;;;5056180;28;51038;-52
2021/08/19 06:17:21;;;;;;;;;7.33;7.33;;;;;;;;5056152;28;51320;-52
2021/08/19 06:19:47;;;;;;;;;8.67;7.00;;;;;;;;5074802;28;51030;-51
2021/08/19 06:22:12;;;;;;;;;8.33;7.00;;;;;;;;5073830;28;51912;-53
2021/08/19 06:24:37;;;;;;;;;8.00;8.00;;;;;;;;5074740;28;51148;-53
2021/08/19 06:27:03;;;;;;;;;9.33;9.00;;;;;;;;5074483;28;51308;-54
2021/08/19 06:29:28;;;;;;;;;7.00;6.33;;;;;;;;5074810;28;51310;-54
2021/08/19 06:31:53;;;;;;;;;6.00;5.67;;;;;;;;5074143;28;51975;-53
2021/08/19 06:34:18;;;;;;;;;6.67;6.00;;;;;;;;5074402;28;51015;-54
2021/08/19 06:36:43;;;;;;;;;12.33;11.33;;;;;;;;5073983;28;51142;-53
2021/08/19 06:39:09;;;;;;;;;7.33;7.00;;;;;;;;5074734;28;51074;-54
2021/08/19 06:41:34;;;;;;;;;7.33;7.33;;;;;;;;5073771;28;51961;-53
2021/08/19 06:43:59;;;;;;;;;11.00;9.00;;;;;;;;5074441;28;50911;-51
2021/08/19 06:46:24;;;;;;;;;12.00;11.00;;;;;;;;5073909;28;51161;-54
2021/08/19 06:48:50;;;;;;;;;8.33;7.00;;;;;;;;5074384;28;51121;-53
2021/08/19 06:51:15;;;;;;;;;8.67;8.67;;;;;;;;5073571;28;51790;-53
2021/08/19 06:53:40;;;;;;;;;7.33;7.33;;;;;;;;5071108;27;51197;-54
2021/08/19 06:56:05;;;;;;;;;7.67;7.67;;;;;;;;5059780;28;51054;-52
2021/08/19 06:58:31;;;;;;;;;6.00;6.00;;;;;;;;5074084;28;50913;-52
2021/08/19 07:00:56;;;;;;;;;7.00;6.67;;;;;;;;5072912;28;51730;-53
2021/08/19 07:03:22;;;;;;;;;8.00;7.33;;;;;;;;5073550;28;50986;-52
2021/08/19 07:05:47;;;;;;;;;4.33;4.33;;;;;;;;5073323;28;51293;-51
2021/08/19 07:08:14;;;;;;;;;9.00;7.67;;;;;;;;5073644;28;51260;-52
2021/08/19 07:10:40;;;;;;;;;5.67;5.67;;;;;;;;5072951;28;51107;-53
2021/08/19 07:13:05;;;;;;;;;6.33;6.33;;;;;;;;5073243;28;51032;-50
2021/08/19 07:15:31;;;;;;;;;5.00;5.00;;;;;;;;5073333;28;51051;-52
2021/08/19 07:17:56;;;;;;;;;7.67;7.67;;;;;;;;5073356;28;51393;-53
2021/08/19 07:20:21;;;;;;;;;6.67;6.67;;;;;;;;5072797;28;51140;-54
2021/08/19 07:22:46;;;;;;;;;10.67;10.67;;;;;;;;5073095;28;51152;-52
2021/08/19 07:25:12;;;;;;;;;8.33;7.33;;;;;;;;5072922;28;51154;-53
2021/08/19 07:27:37;;;;;;;;;6.67;6.67;;;;;;;;5073502;28;50888;-54
2021/08/19 07:30:03;;;;;;;;;9.00;8.00;;;;;;;;5072914;28;52255;-53
2021/08/19 07:32:28;;;;;;;;;4.33;4.33;;;;;;;;5073245;28;50970;-54
2021/08/19 07:34:54;;;;;;;;;7.33;7.00;;;;;;;;5073150;28;50880;-52
2021/08/19 07:37:19;;;;;;;;;7.67;7.67;;;;;;;;5073177;28;51039;-53
2021/08/19 07:39:44;;;;;;;;;6.00;6.00;;;;;;;;5072737;28;50970;-51
2021/08/19 07:42:09;;;;;;;;;7.67;7.67;;;;;;;;5072881;28;50947;-52
2021/08/19 07:44:34;;;;;;;;;9.00;8.67;;;;;;;;5072949;28;50894;-53
2021/08/19 07:47:00;;;;;;;;;7.00;7.00;;;;;;;;5073502;28;51564;-54
2021/08/19 07:49:25;;;;;;;;;6.67;6.67;;;;;;;;5072627;28;51034;-51
2021/08/19 07:51:50;;;;;;;;;7.67;7.33;;;;;;;;5071985;28;51026;-52
2021/08/19 07:54:17;;;;;;;;;11.00;10.67;;;;;;;;5072202;28;50959;-54
2021/08/19 07:56:43;;;;;;;;;8.00;8.00;;;;;;;;5072812;28;50927;-53
2021/08/19 07:59:08;;;;;;;;;9.00;8.00;;;;;;;;5072266;28;53906;-56
2021/08/19 08:01:33;;;;;;;;;8.00;8.00;;;;;;;;5072638;28;50963;-53
2021/08/19 08:03:58;;;;;;;;;6.00;6.00;;;;;;;;5072778;28;51038;-53
2021/08/19 08:06:23;;;;;;;;;9.00;8.33;;;;;;;;5063871;28;50990;-54
2021/08/19 08:08:49;;;;;;;;;7.33;7.00;;;;;;;;5072394;28;51769;-52
2021/08/19 08:11:14;;;;;;;;;8.33;8.33;;;;;;;;5072438;28;50901;-53
2021/08/19 08:13:39;;;;;;;;;10.00;8.33;;;;;;;;5072522;28;50928;-55
2021/08/19 08:16:04;;;;;;;;;7.33;6.67;;;;;;;;5072572;28;51220;-54
2021/08/19 08:18:30;;;;;;;;;7.67;7.00;;;;;;;;5072397;28;51176;-54
2021/08/19 08:20:57;;;;;;;;;9.33;8.33;;;;;;;;5072267;28;51143;-52
2021/08/19 08:23:23;;;;;;;;;8.00;7.00;;;;;;;;5071916;28;51149;-53
2021/08/19 08:25:49;;;;;;;;;6.33;6.33;;;;;;;;5072642;28;50889;-53
2021/08/19 08:28:15;;;;;;;;;8.33;8.33;;;;;;;;5071931;28;52009;-49
2021/08/19 08:30:45;;;;;;;;;5.00;5.00;;;;;;;;5074666;28;51053;-53
2021/08/19 08:33:11;;;;;;;;;10.00;8.00;;;;;;;;5075330;28;51118;-53
2021/08/19 08:35:39;;;;;;;;;9.33;9.33;;;;;;;;5075866;28;50921;-52
2021/08/19 08:38:08;;;;;;;;;9.00;7.33;;;;;;;;5074912;28;51319;-52
2021/08/19 08:40:35;;;;;;;;;9.33;9.33;;;;;;;;5075330;28;50978;-53
2021/08/19 08:43:01;;;;;;;;;7.67;7.67;;;;;;;;5075497;28;51145;-50
2021/08/19 08:45:27;;;;;;;;;8.67;8.00;;;;;;;;5075724;28;51094;-53
2021/08/19 08:47:53;;;;;;;;;8.00;8.00;;;;;;;;5075129;28;52013;-54
2021/08/19 08:50:18;;;;;;;;;8.33;7.67;;;;;;;;5075494;28;50918;-51
2021/08/19 08:52:44;;;;;;;;;7.67;7.67;;;;;;;;5074913;28;50911;-51
2021/08/19 08:55:10;;;;;;;;;8.00;7.33;;;;;;;;5072393;28;51117;-53
2021/08/19 08:57:35;;;;;;;;;9.00;9.00;;;;;;;;5069984;28;52077;-53
2021/08/19 09:00:02;;;;;;;;;8.00;8.00;;;;;;;;5075606;28;51009;-54
2021/08/19 09:02:27;;;;;;;;;8.00;7.00;;;;;;;;5075082;28;50847;-52
2021/08/19 09:05:11;;;;;;;;;7.00;7.00;;;;;;;;5075560;28;50845;-53
2021/08/19 09:07:36;;;;;;;;;6.00;6.00;;;;;;;;5074583;28;51071;-50
2021/08/19 09:10:02;;;;;;;;;7.67;7.00;;;;;;;;5075140;28;50817;-49
2021/08/19 09:12:27;;;;;;;;;7.67;7.67;;;;;;;;5074847;28;50981;-52
2021/08/19 09:14:54;;;;;;;;;7.00;7.00;;;;;;;;5075057;28;50897;-53
2021/08/19 09:17:38;;;;;;;;;6.33;5.33;;;;;;;;5074980;28;51867;-53
2021/08/19 09:20:05;;;;;;;;;7.00;6.00;;;;;;;;5056716;28;51097;-51
2021/08/19 09:22:48;;;;;;;;;7.67;7.67;;;;;;;;5074642;28;51095;-52
2021/08/19 09:25:25;;;;;;;;;6.33;5.67;;;;;;;;5074893;28;51274;-53
2021/08/19 09:28:09;;;;;;;;;7.00;6.67;;;;;;;;5074217;28;52034;-53
2021/08/19 09:30:38;;;;;;;;;8.33;7.67;;;;;;;;5074717;28;50999;-49
2021/08/19 09:33:04;;;;;;;;;8.00;7.00;;;;;;;;5074526;28;51004;-52
2021/08/19 09:35:30;;;;;;;;;6.33;6.33;;;;;;;;5074739;28;51218;-52
2021/08/19 09:37:55;;;;;;;;;4.00;4.00;;;;;;;;5074189;28;50920;-53
2021/08/19 09:40:20;;;;;;;;;9.00;8.00;;;;;;;;5074276;28;50866;-51
2021/08/19 09:42:45;;;;;;;;;6.00;6.00;;;;;;;;5073857;28;51055;-52
2021/08/19 09:45:21;;;;;;;;;5.67;5.00;;;;;;;;5056683;28;51007;-53
2021/08/19 09:47:47;;;;;;;;;8.67;6.67;;;;;;;;5073965;28;52200;-52
2021/08/19 09:50:12;;;;;;;;;3.67;3.67;;;;;;;;5073799;28;50924;-51
2021/08/19 09:52:37;;;;;;;;;8.00;8.00;;;;;;;;5073958;28;51180;-54
2021/08/19 09:55:28;;;;;;;;;4.67;4.67;;;;;;;;5074242;28;51059;-54
2021/08/19 09:57:55;;;;;;;;;5.00;5.00;;;;;;;;5069731;28;52109;-54
2021/08/19 10:00:30;;;;;;;;;5.00;5.00;;;;;;;;5074044;28;50959;-54
2021/08/19 10:02:56;;;;;;;;;6.33;6.33;;;;;;;;5073984;28;51016;-54
2021/08/19 10:05:22;;;;;;;;;11.67;10.00;;;;;;;;5074175;28;51112;-54
2021/08/19 10:07:47;;;;;;;;;9.33;8.00;;;;;;;;5073679;28;51446;-54
2021/08/19 10:10:12;;;;;;;;;11.00;10.00;;;;;;;;5073877;28;50964;-53
2021/08/19 10:12:41;;;;;;;;;15.67;14.33;;;;;;;;5074345;28;51378;-54
2021/08/19 10:15:07;;;;;;;;;8.33;8.33;;;;;;;;5073982;28;51353;-54
2021/08/19 10:17:33;;;;;;;;;11.67;10.33;;;;;;;;5054758;28;52019;-54
2021/08/19 10:19:58;;;;;;;;;8.33;8.00;;;;;;;;5073897;28;51073;-57
2021/08/19 10:22:24;;;;;;;;;13.33;12.33;;;;;;;;5073518;28;51210;-52
2021/08/19 10:24:51;;;;;;;;;7.33;7.00;;;;;;;;5074034;28;51045;-54
2021/08/19 10:27:20;;;;;;;;;5.67;5.67;;;;;;;;5073240;28;51019;-53
2021/08/19 10:29:50;;;;;;;;;6.00;5.00;;;;;;;;5073719;28;51101;-53
2021/08/19 10:32:21;;;;;;;;;4.33;4.33;;;;;;;;5073450;28;50862;-51
2021/08/19 10:35:03;;;;;;;;;4.33;4.33;;;;;;;;5073357;28;51340;-53
2021/08/19 10:37:47;;;;;;;;;6.00;6.00;;;;;;;;5072902;28;51867;-54
2021/08/19 10:40:21;;;;;;;;;5.33;5.33;;;;;;;;5073244;28;50922;-53
2021/08/19 10:42:51;;;;;;;;;4.00;4.00;;;;;;;;5073179;28;51204;-52
2021/08/19 10:45:29;;;;;;;;;5.00;5.00;;;;;;;;5074083;28;51168;-52
2021/08/19 10:48:06;;;;;;;;;6.00;5.33;;;;;;;;5073031;28;52036;-53
2021/08/19 10:50:32;;;;;;;;;6.00;6.00;;;;;;;;5073261;28;50950;-54
2021/08/19 10:53:09;;;;;;;;;7.00;7.00;;;;;;;;5072207;28;51307;-54
2021/08/19 10:55:47;;;;;;;;;3.33;3.33;;;;;;;;5072001;27;51183;-53
2021/08/19 10:58:28;;;;;;;;;9.00;8.00;;;;;;;;5070591;28;51244;-54
2021/08/19 11:00:54;;;;;;;;;5.00;5.00;;;;;;;;5072791;28;51124;-54
2021/08/19 11:03:37;;;;;;;;;3.67;3.00;;;;;;;;5072582;28;51544;-53
2021/08/19 11:06:04;;;;;;;;;5.00;4.67;;;;;;;;5072693;28;50913;-52
2021/08/19 11:08:44;;;;;;;;;7.00;7.00;;;;;;;;5072237;28;51759;-54
2021/08/19 11:11:11;;;;;;;;;5.00;5.00;;;;;;;;5073177;28;50928;-50
2021/08/19 11:13:36;;;;;;;;;8.00;7.33;;;;;;;;5072842;28;51073;-52
2021/08/19 11:16:06;;;;;;;;;9.33;8.33;;;;;;;;5073262;28;51242;-55
2021/08/19 11:18:33;;;;;;;;;5.67;5.67;;;;;;;;5072652;28;51104;-55
2021/08/19 11:20:59;;;;;;;;;5.00;5.00;;;;;;;;5054927;28;51043;-55
2021/08/19 11:23:31;;;;;;;;;6.33;6.00;;;;;;;;5072417;28;50883;-53
2021/08/19 11:26:01;;;;;;;;;7.33;6.00;;;;;;;;5072703;28;51084;-54
2021/08/19 11:28:33;;;;;;;;;6.33;5.67;;;;;;;;5054175;28;51657;-53
2021/08/19 11:30:58;;;;;;;;;5.00;4.00;;;;;;;;5072559;28;51092;-54
2021/08/19 11:33:24;;;;;;;;;5.33;5.00;;;;;;;;5072739;28;51185;-53
2021/08/19 11:35:51;;;;;;;;;5.00;4.67;;;;;;;;5072831;28;50917;-52
2021/08/19 11:38:17;;;;;;;;;5.67;5.00;;;;;;;;5071516;28;50937;-54
2021/08/19 11:40:46;;;;;;;;;6.00;6.00;;;;;;;;5053672;28;50998;-52
2021/08/19 11:43:30;;;;;;;;;9.67;9.00;;;;;;;;5071897;28;51186;-52
2021/08/19 11:46:04;;;;;;;;;6.00;6.00;;;;;;;;5072439;28;51339;-54
2021/08/19 11:48:29;;;;;;;;;8.33;7.00;;;;;;;;5072031;28;51101;-55
2021/08/19 11:50:56;;;;;;;;;0.67;0.33;;;;;;;;5072335;28;50972;-54
2021/08/19 11:53:22;;;;;;;;;5.67;5.00;;;;;;;;5071870;28;51105;-54
2021/08/19 11:55:48;;;;;;;;;8.00;7.00;;;;;;;;5072191;28;50913;-55
2021/08/19 11:58:13;;;;;;;;;4.67;4.67;;;;;;;;5071783;28;51136;-53
2021/08/19 12:00:54;;;;;;;;;6.67;5.33;;;;;;;;5071825;28;50957;-53
2021/08/19 12:03:19;;;;;;;;;7.00;7.00;;;;;;;;5071832;28;50945;-53
2021/08/19 12:05:44;;;;;;;;;4.00;4.00;;;;;;;;5071103;28;51020;-54
2021/08/19 12:08:09;;;;;;;;;5.67;5.00;;;;;;;;5071395;28;51074;-51
2021/08/19 12:10:34;;;;;;;;;6.33;6.33;;;;;;;;5072012;28;51154;-51
2021/08/19 12:13:00;;;;;;;;;6.00;6.00;;;;;;;;5072202;28;51081;-54
2021/08/19 12:15:25;;;;;;;;;5.00;5.00;;;;;;;;5071966;28;51017;-53
2021/08/19 12:18:06;;;;;;;;;4.00;4.00;;;;;;;;5053459;28;52321;-52
2021/08/19 12:20:31;;;;;;;;;6.00;5.00;;;;;;;;5071380;28;50978;-56
2021/08/19 12:23:13;;;;;;;;;0.67;0.00;;;;;;;;5071856;28;50898;-50
2021/08/19 12:25:38;;;;;;;;;4.00;4.00;;;;;;;;5071705;28;51422;-53
2021/08/19 12:28:09;;;;;;;;;3.00;3.00;;;;;;;;5053291;28;53152;-53
2021/08/19 12:30:34;;;;;;;;;5.00;4.00;;;;;;;;5071175;28;50961;-54
2021/08/19 12:33:01;;;;;;;;;4.00;3.33;;;;;;;;5071154;28;50924;-55
2021/08/19 12:35:26;;;;;;;;;4.33;4.33;;;;;;;;5071397;28;51454;-52
2021/08/19 12:37:53;;;;;;;;;5.33;5.00;;;;;;;;5070503;28;51910;-51
2021/08/19 12:40:19;;;;;;;;;5.33;4.33;;;;;;;;5071141;28;51012;-54
2021/08/19 12:42:45;;;;;;;;;6.00;5.33;;;;;;;;5071646;28;50991;-53
2021/08/19 12:45:15;;;;;;;;;6.00;4.67;;;;;;;;5071434;28;51461;-53
2021/08/19 12:47:40;;;;;;;;;4.00;4.00;;;;;;;;5039594;28;52835;-55
2021/08/19 12:50:06;;;;;;;;;5.67;4.00;;;;;;;;5070987;28;50993;-52
2021/08/19 12:52:31;;;;;;;;;6.67;6.00;;;;;;;;5070945;28;51043;-53
2021/08/19 12:55:02;;;;;;;;;4.00;4.00;;;;;;;;5070851;28;51400;-53
2021/08/19 12:57:28;;;;;;;;;9.00;7.67;;;;;;;;5064636;27;50958;-54
2021/08/19 12:59:53;;;;;;;;;8.67;8.67;;;;;;;;5039720;28;51039;-53
2021/08/19 13:02:19;;;;;;;;;4.33;4.33;;;;;;;;5070908;28;51227;-52
2021/08/19 13:04:44;;;;;;;;;4.33;4.00;;;;;;;;5070910;28;50890;-53
2021/08/19 13:07:12;;;;;;;;;3.00;3.00;;;;;;;;5069938;28;51061;-53
2021/08/19 13:09:38;;;;;;;;;4.00;4.00;;;;;;;;5032447;28;51021;-52
2021/08/19 13:12:03;;;;;;;;;4.67;4.67;;;;;;;;5063895;28;50994;-54
2021/08/19 13:14:28;;;;;;;;;6.00;6.00;;;;;;;;5070649;28;50977;-55
2021/08/19 13:16:53;;;;;;;;;4.33;4.00;;;;;;;;5072723;28;51162;-53
2021/08/19 13:19:19;;;;;;;;;5.00;4.33;;;;;;;;5074233;28;51037;-55
2021/08/19 13:21:44;;;;;;;;;5.00;5.00;;;;;;;;5073612;28;51112;-52
2021/08/19 13:24:09;;;;;;;;;4.67;4.67;;;;;;;;5056098;28;51402;-55
2021/08/19 13:26:34;;;;;;;;;3.33;3.33;;;;;;;;5074113;28;51751;-55
2021/08/19 13:28:59;;;;;;;;;3.00;3.00;;;;;;;;5055830;28;51078;-54
2021/08/19 13:31:25;;;;;;;;;5.00;4.00;;;;;;;;5074448;28;51060;-54
2021/08/19 13:33:50;;;;;;;;;3.00;3.00;;;;;;;;5074226;28;51149;-53
2021/08/19 13:36:15;;;;;;;;;5.33;5.00;;;;;;;;5073405;28;52256;-53
2021/08/19 13:38:40;;;;;;;;;4.00;4.00;;;;;;;;5073884;28;50833;-54
2021/08/19 13:41:05;;;;;;;;;3.00;3.00;;;;;;;;5073846;28;51188;-55
2021/08/19 13:43:31;;;;;;;;;4.00;4.00;;;;;;;;5074207;28;50875;-54
2021/08/19 13:45:58;;;;;;;;;4.00;4.00;;;;;;;;5073722;28;51932;-54
2021/08/19 13:48:23;;;;;;;;;5.00;4.00;;;;;;;;5073762;28;51235;-54
2021/08/19 13:50:48;;;;;;;;;5.67;5.33;;;;;;;;5073734;28;51091;-53
2021/08/19 13:53:13;;;;;;;;;5.00;5.00;;;;;;;;5072908;28;50937;-53
2021/08/19 13:55:38;;;;;;;;;5.67;5.00;;;;;;;;5054631;28;52163;-53
2021/08/19 13:58:04;;;;;;;;;3.33;3.33;;;;;;;;5073459;28;51153;-53
2021/08/19 14:00:29;;;;;;;;;5.00;4.00;;;;;;;;5073678;28;50939;-54
2021/08/19 14:02:54;;;;;;;;;4.00;4.00;;;;;;;;5073746;28;50930;-54
2021/08/19 14:05:20;;;;;;;;;3.67;3.00;;;;;;;;5073301;28;51040;-52
2021/08/19 14:07:46;;;;;;;;;5.00;5.00;;;;;;;;5073110;28;51140;-52
2021/08/19 14:10:11;;;;;;;;;6.33;5.33;;;;;;;;5073426;28;51007;-54
2021/08/19 14:12:36;;;;;;;;;5.00;5.00;;;;;;;;5073323;28;51078;-53
2021/08/19 14:15:02;;;;;;;;;6.00;5.00;;;;;;;;5073077;28;51772;-55
2021/08/19 14:17:28;;;;;;;;;4.00;4.00;;;;;;;;5055080;28;51036;-51
2021/08/19 14:19:53;;;;;;;;;5.33;4.67;;;;;;;;5073302;28;51050;-53
2021/08/19 14:22:18;;;;;;;;;6.67;6.67;;;;;;;;5072790;28;50901;-54
2021/08/19 14:24:43;;;;;;;;;4.67;4.67;;;;;;;;5072638;28;50985;-53
2021/08/19 14:27:09;;;;;;;;;4.00;4.00;;;;;;;;5071735;28;51262;-53
2021/08/19 14:29:34;;;;;;;;;5.00;4.00;;;;;;;;5072991;28;50868;-53
2021/08/19 14:31:59;;;;;;;;;5.33;4.67;;;;;;;;5072795;28;51412;-54
2021/08/19 14:34:24;;;;;;;;;6.00;4.00;;;;;;;;5072486;28;51041;-53
2021/08/19 14:36:50;;;;;;;;;6.00;5.00;;;;;;;;5071937;28;50877;-55
2021/08/19 14:39:15;;;;;;;;;6.00;5.00;;;;;;;;5073012;28;50875;-55